createdAt,value
2018-06-28T00:01:35.398Z,21.70
2018-06-28T00:04:03.903Z,22.77
2018-06-28T00:06:32.591Z,27.17
2018-06-28T00:09:01.159Z,21.87
2018-06-28T00:11:29.651Z,26.10
2018-06-28T00:13:58.114Z,28.20
2018-06-28T00:16:26.662Z,24.90
2018-06-28T00:18:55.143Z,30.13
2018-06-28T00:21:23.628Z,31.30
2018-06-28T00:23:52.210Z,29.17
2018-06-28T00:26:20.615Z,27.27
2018-06-28T00:28:49.117Z,27.67
2018-06-28T00:31:17.567Z,32.43
2018-06-28T00:33:46.044Z,35.47
2018-06-28T00:36:14.565Z,38.00
2018-06-28T00:38:43.040Z,40.07
2018-06-28T00:41:11.496Z,37.33
2018-06-28T00:43:39.927Z,34.87
2018-06-28T00:46:08.850Z,32.63
2018-06-28T00:48:37.415Z,33.67
2018-06-28T00:51:05.919Z,32.27
2018-06-28T00:53:34.608Z,36.20
2018-06-28T00:56:03.385Z,35.83
2018-06-28T00:58:31.824Z,34.77
2018-06-28T01:01:00.343Z,30.10
2018-06-28T01:03:28.749Z,31.60
2018-06-28T01:05:57.171Z,35.63
2018-06-28T01:08:25.629Z,32.30
2018-06-28T01:10:54.132Z,29.10
2018-06-28T01:13:22.740Z,28.80
2018-06-28T01:15:51.179Z,29.60
2018-06-28T01:18:19.647Z,29.30
2018-06-28T01:20:48.120Z,32.37
2018-06-28T01:23:16.621Z,34.63
2018-06-28T01:25:45.085Z,32.60
2018-06-28T01:28:13.543Z,37.50
2018-06-28T01:30:41.996Z,38.53
2018-06-28T01:33:10.436Z,42.93
2018-06-28T01:35:38.904Z,35.97
2018-06-28T01:38:07.368Z,33.97
2018-06-28T01:40:35.859Z,36.80
2018-06-28T01:43:29.632Z,37.93
2018-06-28T01:45:58.388Z,41.07
2018-06-28T01:48:26.844Z,33.60
2018-06-28T01:50:55.737Z,32.50
2018-06-28T01:53:24.459Z,28.63
2018-06-28T01:55:52.936Z,31.17
2018-06-28T01:58:22.052Z,32.67
2018-06-28T02:00:50.534Z,32.50
2018-06-28T02:03:19.197Z,31.87
2018-06-28T02:05:49.086Z,28.27
2018-06-28T02:08:17.801Z,29.43
2018-06-28T02:10:46.287Z,29.97
2018-06-28T02:13:15.023Z,29.33
2018-06-28T02:15:43.474Z,29.80
2018-06-28T02:18:11.918Z,28.30
2018-06-28T02:20:40.771Z,27.30
2018-06-28T02:23:09.403Z,29.07
2018-06-28T02:25:38.391Z,30.73
2018-06-28T02:28:06.891Z,27.80
2018-06-28T02:30:35.518Z,31.67
2018-06-28T02:33:04.005Z,31.17
2018-06-28T02:35:32.484Z,28.23
2018-06-28T02:38:00.943Z,24.23
2018-06-28T02:40:29.355Z,25.47
2018-06-28T02:42:57.876Z,27.83
2018-06-28T02:45:26.341Z,32.43
2018-06-28T02:47:54.801Z,26.80
2018-06-28T02:50:23.299Z,27.33
2018-06-28T02:52:51.780Z,25.83
2018-06-28T02:55:20.224Z,22.53
2018-06-28T02:57:48.631Z,29.03
2018-06-28T03:00:17.075Z,22.60
2018-06-28T03:02:45.543Z,24.70
2018-06-28T03:05:14.007Z,25.13
2018-06-28T03:07:42.454Z,22.70
2018-06-28T03:10:10.892Z,22.60
2018-06-28T03:12:39.328Z,22.70
2018-06-28T03:15:08.249Z,23.80
2018-06-28T03:17:36.709Z,21.00
2018-06-28T03:20:05.342Z,23.17
2018-06-28T03:22:33.798Z,23.07
2018-06-28T03:25:02.268Z,22.57
2018-06-28T03:27:31.168Z,20.80
2018-06-28T03:29:59.930Z,21.87
2018-06-28T03:32:28.355Z,21.77
2018-06-28T03:34:56.827Z,21.97
2018-06-28T03:37:25.269Z,17.57
2018-06-28T03:39:53.743Z,20.50
2018-06-28T03:42:22.203Z,24.77
2018-06-28T03:44:50.635Z,15.60
2018-06-28T03:47:19.253Z,16.37
2018-06-28T03:49:47.917Z,19.73
2018-06-28T03:52:16.357Z,25.63
2018-06-28T03:54:44.811Z,21.83
2018-06-28T03:57:13.289Z,20.03
2018-06-28T03:59:41.788Z,23.43
2018-06-28T04:02:10.242Z,20.50
2018-06-28T04:04:38.684Z,22.40
2018-06-28T04:07:07.267Z,18.97
2018-06-28T04:09:35.697Z,21.57
2018-06-28T04:12:04.127Z,19.67
2018-06-28T04:14:32.604Z,20.67
2018-06-28T04:17:01.056Z,20.33
2018-06-28T04:19:29.762Z,24.83
2018-06-28T04:21:58.200Z,19.20
2018-06-28T04:24:26.646Z,18.20
2018-06-28T04:26:55.111Z,20.20
2018-06-28T04:29:23.512Z,24.10
2018-06-28T04:31:51.970Z,18.50
2018-06-28T04:34:20.683Z,18.90
2018-06-28T04:36:49.403Z,21.93
2018-06-28T04:39:17.854Z,17.43
2018-06-28T04:41:46.289Z,21.37
2018-06-28T04:44:14.708Z,21.47
2018-06-28T04:46:43.136Z,18.10
2018-06-28T04:49:12.431Z,19.20
2018-06-28T04:51:40.924Z,24.80
2018-06-28T04:54:09.343Z,23.10
2018-06-28T04:56:37.767Z,27.90
2018-06-28T04:59:06.459Z,19.10
2018-06-28T05:01:34.951Z,18.13
2018-06-28T05:04:03.413Z,18.73
2018-06-28T05:06:32.023Z,19.10
2018-06-28T05:09:00.450Z,19.47
2018-06-28T05:11:28.931Z,15.83
2018-06-28T05:13:57.358Z,16.70
2018-06-28T05:16:25.834Z,20.30
2018-06-28T05:18:54.259Z,19.47
2018-06-28T05:21:22.693Z,17.00
2018-06-28T05:23:51.116Z,16.87
2018-06-28T05:26:19.628Z,22.27
2018-06-28T05:28:48.148Z,17.30
2018-06-28T05:31:16.564Z,20.03
2018-06-28T05:33:45.648Z,18.83
2018-06-28T05:36:14.900Z,19.60
2018-06-28T05:38:43.369Z,23.63
2018-06-28T05:41:11.901Z,18.57
2018-06-28T05:43:40.319Z,23.23
2018-06-28T05:46:08.775Z,17.40
2018-06-28T05:48:37.222Z,21.20
2018-06-28T05:51:05.684Z,21.00
2018-06-28T05:53:34.116Z,17.20
2018-06-28T05:57:31.975Z,19.67
2018-06-28T06:00:00.415Z,16.30
2018-06-28T06:02:28.864Z,24.27
2018-06-28T06:04:57.338Z,19.80
2018-06-28T06:07:25.747Z,20.70
2018-06-28T06:16:38.271Z,23.30
2018-06-28T06:19:06.889Z,23.80
2018-06-28T06:21:35.736Z,25.70
2018-06-28T06:24:04.191Z,28.47
2018-06-28T06:26:32.652Z,26.37
2018-06-28T06:29:01.065Z,25.57
2018-06-28T06:31:29.527Z,29.97
2018-06-28T06:33:58.000Z,30.73
2018-06-28T06:36:26.518Z,35.80
2018-06-28T06:38:54.856Z,34.27
2018-06-28T06:41:23.444Z,31.80
2018-06-28T06:43:51.964Z,32.87
2018-06-28T06:46:20.443Z,36.63
2018-06-28T06:48:48.938Z,33.50
2018-06-28T06:51:17.379Z,48.73
2018-06-28T06:53:45.803Z,30.93
2018-06-28T06:56:15.073Z,35.47
2018-06-28T06:58:43.571Z,35.83
2018-06-28T07:01:11.998Z,40.10
2018-06-28T07:03:40.765Z,39.67
2018-06-28T07:06:09.413Z,43.60
2018-06-28T07:08:37.857Z,40.23
2018-06-28T07:11:06.620Z,34.83
2018-06-28T07:13:35.049Z,39.53
2018-06-28T07:16:03.764Z,36.63
2018-06-28T07:18:32.188Z,38.70
2018-06-28T07:21:00.607Z,39.13
2018-06-28T07:23:29.071Z,36.37
2018-06-28T07:25:57.499Z,38.20
2018-06-28T07:28:26.038Z,36.90
2018-06-28T07:30:54.525Z,44.60
2018-06-28T07:33:23.145Z,42.03
2018-06-28T07:35:52.076Z,38.63
2018-06-28T07:38:20.481Z,38.33
2018-06-28T07:40:48.948Z,36.60
2018-06-28T07:43:17.418Z,36.20
2018-06-28T07:45:45.894Z,35.13
2018-06-28T07:48:14.668Z,32.50
2018-06-28T07:50:43.105Z,36.30
2018-06-28T07:53:11.573Z,35.93
2018-06-28T07:55:39.992Z,33.10
2018-06-28T07:58:08.465Z,34.40
2018-06-28T08:00:36.898Z,32.60
2018-06-28T08:03:05.327Z,35.20
2018-06-28T08:05:33.819Z,32.93
2018-06-28T08:08:02.250Z,33.60
2018-06-28T08:10:31.008Z,42.83
2018-06-28T08:12:59.450Z,37.67
2018-06-28T08:15:27.850Z,35.43
2018-06-28T08:17:56.263Z,35.67
2018-06-28T08:20:24.684Z,43.70
2018-06-28T08:22:53.142Z,34.87
2018-06-28T08:25:21.600Z,33.00
2018-06-28T08:27:50.021Z,36.77
2018-06-28T08:30:19.167Z,37.00
2018-06-28T08:32:47.619Z,35.77
2018-06-28T08:35:16.063Z,33.10
2018-06-28T08:37:44.504Z,38.10
2018-06-28T08:40:12.980Z,38.33
2018-06-28T08:42:41.418Z,34.60
2018-06-28T08:45:10.035Z,34.10
2018-06-28T08:47:38.908Z,33.37
2018-06-28T08:50:07.340Z,26.00
2018-06-28T08:52:35.765Z,32.87
2018-06-28T08:55:04.623Z,27.33
2018-06-28T08:57:33.096Z,28.40
2018-06-28T09:00:01.504Z,28.03
2018-06-28T09:02:30.018Z,26.30
2018-06-28T09:04:58.443Z,27.97
2018-06-28T09:07:26.892Z,24.53
2018-06-28T09:09:55.359Z,29.70
2018-06-28T09:12:23.767Z,30.30
2018-06-28T09:14:52.216Z,26.43
2018-06-28T09:17:20.679Z,28.07
2018-06-28T09:19:49.136Z,25.67
2018-06-28T09:22:17.711Z,24.07
2018-06-28T09:24:46.160Z,27.00
2018-06-28T09:27:14.607Z,28.97
2018-06-28T09:29:43.033Z,27.07
2018-06-28T09:32:11.454Z,25.73
2018-06-28T09:34:39.919Z,27.53
2018-06-28T09:37:08.675Z,25.50
2018-06-28T09:39:37.107Z,28.23
2018-06-28T09:42:06.063Z,27.70
2018-06-28T09:44:34.543Z,25.50
2018-06-28T09:47:03.022Z,29.73
2018-06-28T09:49:31.475Z,22.57
2018-06-28T09:51:59.969Z,23.93
2018-06-28T09:54:28.411Z,25.90
2018-06-28T09:56:57.419Z,27.20
2018-06-28T09:59:25.852Z,23.03
2018-06-28T10:01:54.269Z,21.20
2018-06-28T10:04:22.703Z,22.37
2018-06-28T10:06:51.193Z,28.10
2018-06-28T10:09:19.614Z,21.90
2018-06-28T10:11:48.199Z,22.00
2018-06-28T10:14:16.662Z,24.40
2018-06-28T10:16:45.119Z,24.27
2018-06-28T10:19:13.579Z,20.97
2018-06-28T10:21:42.018Z,21.40
2018-06-28T10:24:10.467Z,20.23
2018-06-28T10:26:38.951Z,21.07
2018-06-28T10:29:07.372Z,21.23
2018-06-28T10:31:35.843Z,19.33
2018-06-28T10:34:04.330Z,19.30
2018-06-28T10:36:32.804Z,19.20
2018-06-28T10:39:01.208Z,22.70
2018-06-28T10:41:29.691Z,19.80
2018-06-28T10:43:58.108Z,20.67
2018-06-28T10:46:26.923Z,21.43
2018-06-28T10:48:55.386Z,18.80
2018-06-28T10:51:23.818Z,19.60
2018-06-28T10:53:52.671Z,18.67
2018-06-28T10:56:21.140Z,19.13
2018-06-28T10:58:49.579Z,18.67
2018-06-28T11:01:18.023Z,18.50
2018-06-28T11:03:46.616Z,18.97
2018-06-28T11:06:15.059Z,19.67
2018-06-28T11:08:43.519Z,21.20
2018-06-28T11:11:11.952Z,23.70
2018-06-28T11:13:40.418Z,21.60
2018-06-28T11:16:08.889Z,19.60
2018-06-28T11:18:37.396Z,19.57
2018-06-28T11:21:05.840Z,20.13
2018-06-28T11:23:34.215Z,22.80
2018-06-28T11:26:02.639Z,23.30
2018-06-28T11:28:31.083Z,23.93
2018-06-28T11:30:59.524Z,29.67
2018-06-28T11:33:27.996Z,21.77
2018-06-28T11:37:25.614Z,21.90
2018-06-28T11:39:54.079Z,24.43
2018-06-28T11:42:22.515Z,22.77
2018-06-28T11:44:50.969Z,21.80
2018-06-28T11:47:19.417Z,20.50
2018-06-28T11:49:47.860Z,21.93
2018-06-28T11:52:16.352Z,23.63
2018-06-28T11:54:44.756Z,22.80
2018-06-28T11:57:13.176Z,22.20
2018-06-28T11:59:41.600Z,20.80
2018-06-28T12:02:10.056Z,22.00
2018-06-28T12:04:38.568Z,23.90
2018-06-28T12:07:07.010Z,20.27
2018-06-28T12:09:35.467Z,22.53
2018-06-28T12:12:03.946Z,17.53
2018-06-28T12:14:32.378Z,20.33
2018-06-28T12:17:00.849Z,20.97
2018-06-28T12:19:29.251Z,22.50
2018-06-28T12:21:57.696Z,17.80
2018-06-28T12:24:26.151Z,18.17
2018-06-28T12:26:54.795Z,18.03
2018-06-28T12:29:23.247Z,16.80
2018-06-28T12:31:51.738Z,16.33
2018-06-28T12:34:20.221Z,16.93
2018-06-28T12:36:48.710Z,16.97
2018-06-28T12:39:17.206Z,15.73
2018-06-28T12:41:45.635Z,17.00
2018-06-28T12:44:14.110Z,16.13
2018-06-28T12:48:07.802Z,14.10
2018-06-28T12:50:36.247Z,13.60
2018-06-28T12:53:08.859Z,15.27
2018-06-28T12:56:15.307Z,14.60
2018-06-28T12:58:43.776Z,14.67
2018-06-28T13:01:12.200Z,13.50
2018-06-28T13:03:40.630Z,13.53
2018-06-28T13:06:09.105Z,13.13
2018-06-28T13:08:37.615Z,13.30
2018-06-28T13:11:06.066Z,16.17
2018-06-28T13:13:34.524Z,12.90
2018-06-28T13:16:03.024Z,11.30
2018-06-28T13:18:31.523Z,13.60
2018-06-28T13:21:00.000Z,12.90
2018-06-28T13:23:28.428Z,12.17
2018-06-28T13:25:56.831Z,11.03
2018-06-28T13:28:25.712Z,11.37
2018-06-28T13:30:54.162Z,10.00
2018-06-28T13:33:22.553Z,11.20
2018-06-28T13:35:51.010Z,10.63
2018-06-28T13:38:19.739Z,9.03
2018-06-28T13:40:48.306Z,9.83
2018-06-28T13:43:16.632Z,8.87
2018-06-28T13:45:45.100Z,8.23
2018-06-28T13:48:13.545Z,9.33
2018-06-28T13:50:42.019Z,7.90
2018-06-28T13:53:10.504Z,8.60
2018-06-28T13:55:39.239Z,14.40
2018-06-28T13:58:08.211Z,18.10
2018-06-28T14:00:36.648Z,11.43
2018-06-28T14:03:05.203Z,7.77
2018-06-28T14:05:33.683Z,6.30
2018-06-28T14:08:02.372Z,6.00
2018-06-28T14:10:31.027Z,5.47
2018-06-28T14:12:59.453Z,7.50
2018-06-28T14:15:27.844Z,5.53
2018-06-28T14:17:56.291Z,6.90
2018-06-28T14:20:24.763Z,8.10
2018-06-28T14:22:53.318Z,11.03
2018-06-28T14:25:21.806Z,6.10
2018-06-28T14:27:50.243Z,14.10
2018-06-28T14:30:18.675Z,4.63
2018-06-28T14:32:47.131Z,3.00
2018-06-28T14:35:15.590Z,3.50
2018-06-28T14:37:44.020Z,4.37
2018-06-28T14:40:12.440Z,1.13
2018-06-28T14:42:40.931Z,1.53
2018-06-28T14:45:09.496Z,1.13
2018-06-28T14:47:38.090Z,2.70
2018-06-28T14:50:06.567Z,2.90
2018-06-28T14:52:35.034Z,3.10
2018-06-28T14:55:03.491Z,2.33
2018-06-28T14:57:32.223Z,2.70
2018-06-28T15:00:00.640Z,1.70
2018-06-28T15:02:29.038Z,2.33
2018-06-28T15:04:57.463Z,1.77
2018-06-28T15:07:25.842Z,1.30
2018-06-28T15:09:54.224Z,1.43
2018-06-28T15:12:22.673Z,1.50
2018-06-28T15:14:51.093Z,1.60
2018-06-28T15:17:19.613Z,1.87
2018-06-28T15:19:48.017Z,3.70
2018-06-28T15:22:16.434Z,1.10
2018-06-28T15:24:44.908Z,2.67
2018-06-28T15:27:13.406Z,0.90
2018-06-28T15:29:41.827Z,1.10
2018-06-28T15:32:10.235Z,1.73
2018-06-28T15:34:38.870Z,1.03
2018-06-28T15:37:07.773Z,1.10
2018-06-28T15:39:36.166Z,1.00
2018-06-28T15:42:04.807Z,2.80
2018-06-28T15:44:33.294Z,1.00
2018-06-28T15:47:01.992Z,4.80
2018-06-28T15:49:30.476Z,26.33
2018-06-28T15:51:59.036Z,5.33
2018-06-28T15:54:27.455Z,3.77
2018-06-28T15:56:55.937Z,2.07
2018-06-28T15:59:24.399Z,5.50
2018-06-28T16:01:52.970Z,6.20
2018-06-28T16:04:21.604Z,4.60
2018-06-28T16:06:50.274Z,6.93
2018-06-28T16:09:18.710Z,1.90
2018-06-28T16:11:47.168Z,2.67
2018-06-28T16:14:15.771Z,2.23
2018-06-28T16:16:44.228Z,8.00
2018-06-28T16:19:12.668Z,2.23
2018-06-28T16:21:41.067Z,3.00
2018-06-28T16:24:10.090Z,4.10
2018-06-28T16:26:39.161Z,2.70
2018-06-28T16:30:36.743Z,1.27
2018-06-28T16:33:05.175Z,1.00
2018-06-28T16:35:33.611Z,1.10
2018-06-28T16:38:02.040Z,1.37
2018-06-28T16:40:30.480Z,1.37
2018-06-28T16:42:58.924Z,1.50
2018-06-28T16:45:27.375Z,2.80
2018-06-28T16:47:55.808Z,1.27
2018-06-28T16:50:24.467Z,1.80
2018-06-28T16:52:52.907Z,1.30
2018-06-28T16:55:21.347Z,3.10
2018-06-28T16:57:49.864Z,1.50
2018-06-28T17:00:18.242Z,2.17
2018-06-28T17:02:46.675Z,2.00
2018-06-28T17:05:15.122Z,2.60
2018-06-28T17:07:43.689Z,3.33
2018-06-28T17:10:12.278Z,3.20
2018-06-28T17:12:40.991Z,1.33
2018-06-28T17:15:09.688Z,1.87
2018-06-28T17:17:38.071Z,1.67
2018-06-28T17:20:06.610Z,1.20
2018-06-28T17:22:34.985Z,1.50
2018-06-28T17:25:03.506Z,1.00
2018-06-28T17:27:31.967Z,2.37
2018-06-28T17:30:00.678Z,1.40
2018-06-28T17:32:29.111Z,2.13
2018-06-28T17:34:57.547Z,2.67
2018-06-28T17:37:26.044Z,1.70
2018-06-28T17:39:54.462Z,1.83
2018-06-28T17:42:22.892Z,1.83
2018-06-28T17:44:51.506Z,3.00
2018-06-28T17:47:19.956Z,3.07
2018-06-28T17:49:48.417Z,5.27
2018-06-28T17:52:16.864Z,2.30
2018-06-28T17:54:45.275Z,2.10
2018-06-28T17:57:13.722Z,1.70
2018-06-28T17:59:42.140Z,4.67
2018-06-28T18:02:10.583Z,1.90
2018-06-28T18:04:39.026Z,3.80
2018-06-28T18:07:07.633Z,1.60
2018-06-28T18:09:36.040Z,4.17
2018-06-28T18:12:04.456Z,1.63
2018-06-28T18:14:32.999Z,3.63
2018-06-28T18:17:01.404Z,5.87
2018-06-28T18:19:29.819Z,4.33
2018-06-28T18:21:58.420Z,4.00
2018-06-28T18:24:27.123Z,1.70
2018-06-28T18:26:55.593Z,5.40
2018-06-28T18:29:24.051Z,2.60
2018-06-28T18:31:52.744Z,3.97
2018-06-28T18:34:21.590Z,2.63
2018-06-28T18:36:50.204Z,2.47
2018-06-28T18:39:18.967Z,2.20
2018-06-28T18:41:47.386Z,3.50
2018-06-28T18:44:16.194Z,2.33
2018-06-28T18:46:44.728Z,2.37
2018-06-28T18:49:13.205Z,2.10
2018-06-28T18:51:41.645Z,6.83
2018-06-28T18:54:10.431Z,5.37
2018-06-28T18:56:38.954Z,2.70
2018-06-28T18:59:07.396Z,2.00
2018-06-28T19:01:35.823Z,4.60
2018-06-28T19:04:04.276Z,1.70
2018-06-28T19:06:33.322Z,1.60
2018-06-28T19:09:01.777Z,2.43
2018-06-28T19:11:30.321Z,3.60
2018-06-28T19:14:04.258Z,5.37
2018-06-28T19:16:37.982Z,1.77
2018-06-28T19:19:06.436Z,1.90
2018-06-28T19:21:40.064Z,5.77
2018-06-28T19:24:08.528Z,18.97
2018-06-28T19:26:37.032Z,8.23
2018-06-28T19:29:10.832Z,6.57
2018-06-28T19:31:44.374Z,3.70
2018-06-28T19:34:12.960Z,5.37
2018-06-28T19:36:41.408Z,4.60
2018-06-28T19:39:15.131Z,2.40
2018-06-28T19:41:48.769Z,3.23
2018-06-28T19:44:17.282Z,5.50
2018-06-28T19:46:45.716Z,4.80
2018-06-28T19:49:19.238Z,5.97
2018-06-28T19:51:52.703Z,2.40
2018-06-28T19:54:21.159Z,6.83
2018-06-28T19:56:49.564Z,6.53
2018-06-28T19:59:18.348Z,6.10
2018-06-28T20:01:51.919Z,6.70
2018-06-28T20:04:24.514Z,3.03
2018-06-28T20:06:52.948Z,3.80
2018-06-28T20:09:21.757Z,4.40
2018-06-28T20:11:50.504Z,3.23
2018-06-28T20:14:24.654Z,8.70
2018-06-28T20:16:58.320Z,8.83
2018-06-28T20:19:32.020Z,7.83
2018-06-28T20:22:00.768Z,5.00
2018-06-28T20:24:29.306Z,3.50
2018-06-28T20:27:02.770Z,7.87
2018-06-28T20:29:36.403Z,6.77
2018-06-28T20:32:10.244Z,6.20
2018-06-28T20:34:38.835Z,6.27
2018-06-28T20:37:07.298Z,4.80
2018-06-28T20:39:35.909Z,7.23
2018-06-28T20:42:04.365Z,5.40
2018-06-28T20:44:32.822Z,4.67
2018-06-28T20:47:01.287Z,5.00
2018-06-28T20:49:29.756Z,6.63
2018-06-28T20:51:58.224Z,5.27
2018-06-28T20:54:26.616Z,7.50
2018-06-28T20:56:55.044Z,6.43
2018-06-28T20:59:23.444Z,8.67
2018-06-28T21:01:51.889Z,12.17
2018-06-28T21:04:20.656Z,57.60
2018-06-28T21:06:49.067Z,28.47
2018-06-28T21:09:17.731Z,7.90
2018-06-28T21:11:46.175Z,7.53
2018-06-28T21:14:14.613Z,12.47
2018-06-28T21:16:43.167Z,6.40
2018-06-28T21:19:11.616Z,4.90
2018-06-28T21:21:40.217Z,6.70
2018-06-28T21:24:08.595Z,6.67
2018-06-28T21:26:37.072Z,5.53
2018-06-28T21:29:05.690Z,5.87
2018-06-28T21:31:34.375Z,7.13
2018-06-28T21:34:02.810Z,8.77
2018-06-28T21:36:31.224Z,7.77
2018-06-28T21:38:59.703Z,12.23
2018-06-28T21:41:28.126Z,14.00
2018-06-28T21:43:56.542Z,9.50
2018-06-28T21:46:24.964Z,7.07
2018-06-28T21:48:53.652Z,7.10
2018-06-28T21:51:22.109Z,8.30
2018-06-28T21:53:51.354Z,7.83
2018-06-28T21:56:19.810Z,13.97
2018-06-28T21:58:48.402Z,10.00
2018-06-28T22:01:16.844Z,10.87
2018-06-28T22:03:45.312Z,13.97
2018-06-28T22:06:13.731Z,11.07
2018-06-28T22:08:42.211Z,12.70
2018-06-28T22:11:10.960Z,11.80
2018-06-28T22:13:39.383Z,12.63
2018-06-28T22:16:07.891Z,16.70
2018-06-28T22:18:36.293Z,13.93
2018-06-28T22:21:04.761Z,15.00
2018-06-28T22:23:33.185Z,12.60
2018-06-28T22:26:01.715Z,15.60
2018-06-28T22:28:30.128Z,11.47
2018-06-28T22:30:58.637Z,15.13
2018-06-28T22:33:27.134Z,14.20
2018-06-28T22:35:55.544Z,12.60
2018-06-28T22:38:23.983Z,17.37
2018-06-28T22:40:52.444Z,17.97
2018-06-28T22:43:20.869Z,15.97
2018-06-28T22:45:49.376Z,12.73
2018-06-28T22:48:17.808Z,22.67
2018-06-28T22:50:46.222Z,16.73
2018-06-28T22:53:14.630Z,17.00
2018-06-28T22:55:43.037Z,15.57
2018-06-28T22:58:11.483Z,17.43
2018-06-28T23:00:39.903Z,16.57
2018-06-28T23:03:08.335Z,19.93
2018-06-28T23:05:36.775Z,23.67
2018-06-28T23:08:05.272Z,23.30
2018-06-28T23:10:33.707Z,28.87
2018-06-28T23:13:02.131Z,24.20
2018-06-28T23:15:30.579Z,25.63
2018-06-28T23:17:58.991Z,25.87
2018-06-28T23:20:27.411Z,30.00
2018-06-28T23:22:56.028Z,21.33
2018-06-28T23:25:24.487Z,23.77
2018-06-28T23:27:52.959Z,27.37
2018-06-28T23:30:21.415Z,26.83
2018-06-28T23:32:49.843Z,27.90
2018-06-28T23:35:18.300Z,27.50
2018-06-28T23:37:46.747Z,31.10
2018-06-28T23:40:15.292Z,39.17
2018-06-28T23:42:43.934Z,37.23
2018-06-28T23:45:12.385Z,42.67
2018-06-28T23:47:40.808Z,48.00
2018-06-28T23:50:10.136Z,46.87
2018-06-28T23:52:38.903Z,53.30
2018-06-28T23:55:08.116Z,57.40
2018-06-28T23:57:36.696Z,58.37
